Time;durP1;ratioP1;P1;durP2;ratioP2;P2;SDS_P1;SDS_P2;PMS_P1;PMS_P2;Temp;Humidity;BMP_temperature;BMP_pressure;BME280_temperature;BME280_humidity;BME280_pressure;Samples;Min_cycle;Max_cycle;Signal;HPM_P1;HPM_P2
2023/11/22 06:45:57;;;;;;;4.65;3.08;;;;;;;;;;10506736;28;20507;-85
2023/11/22 06:50:58;;;;;;;;;;;;;;;;;;10503866;28;20067;-85
2023/11/22 06:56:01;;;;;;;3.87;3.00;;;;;;;;;;10504848;28;19954;-84
2023/11/22 07:01:02;;;;;;;3.97;2.50;;;;;;;;;;10508250;28;20029;-84
2023/11/22 07:06:04;;;;;;;4.88;3.03;;;;;;;;;;10493045;28;20037;-84
2023/11/22 07:11:07;;;;;;;4.60;2.70;;;;;;;;;;10493771;28;20542;-84
2023/11/22 07:16:11;;;;;;;3.72;3.00;;;;;;;;;;10499242;28;20021;-84
2023/11/22 07:21:12;;;;;;;4.60;3.30;;;;;;;;;;10508056;28;20025;-84
2023/11/22 07:26:16;;;;;;;;;;;;;;;;;;10509173;28;20032;-85
2023/11/22 07:31:17;;;;;;;4.10;3.05;;;;;;;;;;10507026;28;19955;-83
2023/11/22 07:36:20;;;;;;;3.30;2.58;;;;;;;;;;10512457;28;20078;-84
2023/11/22 07:41:21;;;;;;;3.33;2.50;;;;;;;;;;10503156;28;20043;-83
2023/11/22 07:46:22;;;;;;;4.88;3.40;;;;;;;;;;10498907;28;20024;-83
2023/11/22 07:51:24;;;;;;;;;;;;;;;;;;10494009;28;20028;-83
2023/11/22 07:56:25;;;;;;;;;;;;;;;;;;10471779;28;20000;-83
2023/11/22 08:01:29;;;;;;;2.85;2.50;;;;;;;;;;10468174;28;19904;-83
2023/11/22 08:06:56;;;;;;;5.25;4.00;;;;;;;;;;10466623;28;20120;-85
2023/11/22 08:12:00;;;;;;;5.28;4.45;;;;;;;;;;10467472;28;20043;-84
2023/11/22 08:17:05;;;;;;;5.18;3.67;;;;;;;;;;10469230;28;20021;-80
2023/11/22 08:22:06;;;;;;;6.57;5.13;;;;;;;;;;10466436;28;20074;-81
2023/11/22 08:27:07;;;;;;;5.30;3.70;;;;;;;;;;10466708;28;20033;-81
2023/11/22 08:32:10;;;;;;;4.57;3.30;;;;;;;;;;10467598;28;20025;-80
2023/11/22 08:37:11;;;;;;;4.78;3.40;;;;;;;;;;10473832;28;20013;-79
2023/11/22 08:42:13;;;;;;;6.80;3.22;;;;;;;;;;10478744;28;20044;-81
2023/11/22 08:47:14;;;;;;;5.47;3.20;;;;;;;;;;10466824;28;20032;-81
2023/11/22 08:52:15;;;;;;;3.80;3.40;;;;;;;;;;10477065;28;20108;-80
2023/11/22 08:57:16;;;;;;;;;;;;;;;;;;10466745;28;20059;-80
2023/11/22 09:02:17;;;;;;;3.63;3.10;;;;;;;;;;10463338;28;19904;-81
2023/11/22 09:07:22;;;;;;;4.63;3.30;;;;;;;;;;10462597;28;20032;-80
2023/11/22 09:12:23;;;;;;;5.28;3.67;;;;;;;;;;10466102;28;20522;-81
2023/11/22 09:17:24;;;;;;;;;;;;;;;;;;10465922;28;20085;-80
2023/11/22 09:22:26;;;;;;;4.63;3.45;;;;;;;;;;10462106;28;19904;-79
2023/11/22 09:27:27;;;;;;;4.53;3.72;;;;;;;;;;10463785;28;20533;-80
2023/11/22 09:32:28;;;;;;;;;;;;;;;;;;10460941;28;20159;-79
2023/11/22 09:37:30;;;;;;;4.50;3.25;;;;;;;;;;10460971;28;19911;-79
2023/11/22 09:42:31;;;;;;;3.50;2.60;;;;;;;;;;10462142;28;20043;-79
2023/11/22 09:47:36;;;;;;;4.07;2.72;;;;;;;;;;10461302;28;20373;-80
2023/11/22 09:52:37;;;;;;;2.80;2.35;;;;;;;;;;10469306;28;20033;-78
2023/11/22 09:57:39;;;;;;;5.53;2.60;;;;;;;;;;10465901;28;20025;-78
2023/11/22 10:02:42;;;;;;;4.40;2.85;;;;;;;;;;10464441;28;20029;-78
2023/11/22 10:07:43;;;;;;;5.03;3.20;;;;;;;;;;10462832;28;20419;-79
2023/11/22 10:12:44;;;;;;;4.97;2.90;;;;;;;;;;10470944;28;20120;-80
2023/11/22 10:18:03;;;;;;;6.72;3.28;;;;;;;;;;10459942;28;20028;-80
2023/11/22 10:23:08;;;;;;;4.40;3.22;;;;;;;;;;10460406;28;20040;-79
2023/11/22 10:28:09;;;;;;;4.70;3.08;;;;;;;;;;10460274;28;20033;-80
2023/11/22 10:33:14;;;;;;;4.15;2.90;;;;;;;;;;10457081;28;20067;-79
2023/11/22 10:38:15;;;;;;;4.60;2.20;;;;;;;;;;10458540;28;20033;-79
2023/11/22 10:43:16;;;;;;;4.35;2.50;;;;;;;;;;10458938;28;20033;-80
2023/11/22 10:48:18;;;;;;;;;;;;;;;;;;10460261;28;20057;-80
2023/11/22 10:53:24;;;;;;;4.05;2.28;;;;;;;;;;10460806;28;19954;-81
2023/11/22 10:58:26;;;;;;;5.38;2.47;;;;;;;;;;10463478;28;20017;-80
2023/11/22 11:03:38;;;;;;;7.05;2.80;;;;;;;;;;10461640;28;20021;-79
2023/11/22 11:08:40;;;;;;;5.43;2.50;;;;;;;;;;10464229;28;20092;-81
2023/11/22 11:13:41;;;;;;;4.88;2.75;;;;;;;;;;10465832;28;20029;-81
2023/11/22 11:18:42;;;;;;;4.43;2.40;;;;;;;;;;10461987;28;20373;-81
2023/11/22 11:23:44;;;;;;;4.60;2.72;;;;;;;;;;10459704;28;20452;-81
2023/11/22 11:28:47;;;;;;;3.92;2.45;;;;;;;;;;10474868;28;20522;-81
2023/11/22 11:33:48;;;;;;;4.53;2.42;;;;;;;;;;10471016;28;20025;-81
2023/11/22 11:38:52;;;;;;;;;;;;;;;;;;10469079;28;20021;-82
2023/11/22 11:43:53;;;;;;;3.67;2.50;;;;;;;;;;10470174;28;19912;-81
2023/11/22 11:48:54;;;;;;;;;;;;;;;;;;10471972;28;20403;-81
2023/11/22 11:53:55;;;;;;;3.55;2.08;;;;;;;;;;10473016;28;19922;-81
2023/11/22 11:58:59;;;;;;;3.63;2.33;;;;;;;;;;10474408;28;20029;-82
2023/11/22 12:04:03;;;;;;;3.72;2.45;;;;;;;;;;10475340;28;20025;-82
2023/11/22 12:09:04;;;;;;;3.20;2.30;;;;;;;;;;10480793;28;20496;-81
2023/11/22 12:14:05;;;;;;;;;;;;;;;;;;10488204;28;20060;-81
2023/11/22 12:19:07;;;;;;;3.97;2.78;;;;;;;;;;10497317;28;19943;-81
2023/11/22 12:24:10;;;;;;;5.03;3.88;;;;;;;;;;10472552;28;20431;-82
2023/11/22 12:29:14;;;;;;;5.13;2.63;;;;;;;;;;10474944;28;20048;-82
2023/11/22 12:34:15;;;;;;;3.67;2.20;;;;;;;;;;10470930;28;20392;-82
2023/11/22 12:39:16;;;;;;;;;;;;;;;;;;10471654;28;20021;-81
2023/11/22 12:44:18;;;;;;;4.95;3.88;;;;;;;;;;10478958;28;20455;-82
2023/11/22 12:49:19;;;;;;;5.45;2.40;;;;;;;;;;10470330;28;20477;-82
2023/11/22 12:54:21;;;;;;;2.75;2.00;;;;;;;;;;10468611;28;20504;-82
2023/11/22 12:59:22;;;;;;;4.53;3.20;;;;;;;;;;10449527;22;20044;-79
2023/11/22 13:04:23;;;;;;;3.10;2.08;;;;;;;;;;10402625;28;20379;-80
2023/11/22 13:09:24;;;;;;;;;;;;;;;;;;10396173;28;20040;-81
2023/11/22 13:14:26;;;;;;;2.50;2.00;;;;;;;;;;10388858;28;20375;-81
2023/11/22 13:19:27;;;;;;;3.88;1.98;;;;;;;;;;10386652;28;20033;-80
2023/11/22 13:24:28;;;;;;;;;;;;;;;;;;10388995;28;20113;-81
2023/11/22 13:29:29;;;;;;;3.08;2.03;;;;;;;;;;10386106;28;19906;-82
2023/11/22 13:34:30;;;;;;;;;;;;;;;;;;10391132;28;20057;-81
2023/11/22 13:39:33;;;;;;;3.10;2.40;;;;;;;;;;10397639;28;19968;-83
2023/11/22 13:44:34;;;;;;;2.67;1.98;;;;;;;;;;10416435;28;20093;-84
2023/11/22 13:49:36;;;;;;;;;;;;;;;;;;10396363;28;20073;-80
2023/11/22 13:54:39;;;;;;;4.18;1.92;;;;;;;;;;10392380;28;19909;-83
2023/11/22 13:59:40;;;;;;;2.80;2.00;;;;;;;;;;10402081;28;20048;-83
2023/11/22 14:04:42;;;;;;;3.38;2.17;;;;;;;;;;10396993;28;20026;-81
2023/11/22 14:09:46;;;;;;;2.53;1.90;;;;;;;;;;10391146;28;20028;-82
2023/11/22 14:14:48;;;;;;;3.33;2.25;;;;;;;;;;10392078;28;20022;-83
2023/11/22 14:19:49;;;;;;;3.63;1.85;;;;;;;;;;10389305;28;20022;-84
2023/11/22 14:24:59;;;;;;;4.47;2.65;;;;;;;;;;10390863;28;20033;-87
2023/11/22 14:30:02;;;;;;;3.35;1.88;;;;;;;;;;10388123;28;20032;-81
2023/11/22 14:35:03;;;;;;;3.47;2.42;;;;;;;;;;10388151;28;20030;-80
2023/11/22 14:40:05;;;;;;;3.78;2.13;;;;;;;;;;10387759;28;20026;-81
2023/11/22 14:45:06;;;;;;;5.00;3.00;;;;;;;;;;10391284;28;20030;-81
2023/11/22 14:50:11;;;;;;;3.55;1.88;;;;;;;;;;10389167;28;20034;-80
2023/11/22 14:55:12;;;;;;;3.40;2.20;;;;;;;;;;10395859;28;20033;-79
2023/11/22 15:00:14;;;;;;;;;;;;;;;;;;10404051;28;20569;-81
2023/11/22 15:05:15;;;;;;;3.05;2.00;;;;;;;;;;10418027;28;19909;-80
2023/11/22 15:10:16;;;;;;;;;;;;;;;;;;10410297;28;20030;-80
2023/11/22 15:15:18;;;;;;;3.05;2.00;;;;;;;;;;10403670;28;19916;-80
2023/11/22 15:20:19;;;;;;;3.55;2.03;;;;;;;;;;10403197;28;20084;-83
2023/11/22 15:25:20;;;;;;;5.25;2.30;;;;;;;;;;10402630;28;20528;-82
2023/11/22 15:30:22;;;;;;;;;;;;;;;;;;10392422;28;20045;-82
2023/11/22 15:35:23;;;;;;;4.53;3.20;;;;;;;;;;10392723;28;19909;-80
2023/11/22 15:40:25;;;;;;;4.57;2.70;;;;;;;;;;10388576;28;20029;-81
2023/11/22 15:45:26;;;;;;;3.05;2.20;;;;;;;;;;10391595;28;20569;-81
2023/11/22 15:50:27;;;;;;;;;;;;;;;;;;10391114;28;20057;-81
2023/11/22 15:55:28;;;;;;;3.92;2.15;;;;;;;;;;10389758;28;19917;-81
2023/11/22 16:00:30;;;;;;;;;;;;;;;;;;10390953;28;20049;-80
2023/11/22 16:05:31;;;;;;;6.30;3.03;;;;;;;;;;10391443;28;19906;-82
2023/11/22 16:10:32;;;;;;;;;;;;;;;;;;10395047;28;20030;-83
2023/11/22 16:15:33;;;;;;;6.30;2.40;;;;;;;;;;10390898;28;19909;-83
2023/11/22 16:20:34;;;;;;;2.97;2.30;;;;;;;;;;10392205;28;20045;-79
2023/11/22 16:25:36;;;;;;;;;;;;;;;;;;10389593;28;20025;-78
2023/11/22 16:30:37;;;;;;;3.25;2.10;;;;;;;;;;10389583;28;19905;-79
2023/11/22 16:35:38;;;;;;;4.22;3.03;;;;;;;;;;10389844;28;20567;-79
2023/11/22 16:40:40;;;;;;;;;;;;;;;;;;10387121;28;20100;-79
2023/11/22 16:45:41;;;;;;;3.50;2.50;;;;;;;;;;10397719;28;20265;-78
2023/11/22 16:50:42;;;;;;;;;;;;;;;;;;10409476;28;20081;-79
2023/11/22 16:55:43;;;;;;;4.78;3.40;;;;;;;;;;10402983;28;20009;-80
2023/11/22 17:00:46;;;;;;;5.75;4.25;;;;;;;;;;10388918;28;20057;-80
2023/11/22 17:05:49;;;;;;;3.90;2.83;;;;;;;;;;10399033;28;20022;-82
2023/11/22 17:10:50;;;;;;;4.10;3.13;;;;;;;;;;10421337;28;20033;-80
2023/11/22 17:15:51;;;;;;;4.10;3.03;;;;;;;;;;10410584;28;20028;-83
2023/11/22 17:20:53;;;;;;;;;;;;;;;;;;10397874;28;20513;-83
2023/11/22 17:25:56;;;;;;;5.35;3.65;;;;;;;;;;10392380;28;19912;-82
2023/11/22 18:56:14;;;;;;;6.88;5.50;;;;;;;;;;10452179;22;20042;-83
2023/11/22 19:01:15;;;;;;;;;;;;;;;;;;10426502;28;20036;-82
2023/11/22 19:06:18;;;;;;;11.45;8.88;;;;;;;;;;10426347;28;19905;-82
2023/11/22 19:11:19;;;;;;;5.93;4.78;;;;;;;;;;10418072;28;20116;-82
2023/11/22 19:16:23;;;;;;;;;;;;;;;;;;10436985;28;20084;-83
2023/11/22 19:21:24;;;;;;;9.50;7.35;;;;;;;;;;10439202;28;19905;-82
2023/11/22 19:26:25;;;;;;;;;;;;;;;;;;10420861;28;20025;-81
2023/11/22 19:31:27;;;;;;;11.60;8.43;;;;;;;;;;10418378;28;19905;-82
2023/11/22 19:36:34;;;;;;;9.32;6.60;;;;;;;;;;10416619;28;20084;-82
2023/11/22 19:41:36;;;;;;;9.20;6.65;;;;;;;;;;10415538;28;20025;-82
2023/11/22 19:46:37;;;;;;;7.40;6.03;;;;;;;;;;10414995;28;20021;-82
2023/11/22 19:51:39;;;;;;;13.75;10.80;;;;;;;;;;10423531;28;20026;-80
2023/11/22 19:56:41;;;;;;;12.32;9.05;;;;;;;;;;10427628;28;20064;-82
2023/11/22 20:01:42;;;;;;;12.60;9.63;;;;;;;;;;10425599;28;20049;-82
2023/11/22 20:06:43;;;;;;;;;;;;;;;;;;10426916;28;20052;-83
